createdAt,value
2022-09-04T00:01:22.246Z,14.56
2022-09-04T00:04:17.206Z,14.56
2022-09-04T00:07:07.619Z,14.75
2022-09-04T00:09:53.467Z,14.78
2022-09-04T00:12:34.238Z,14.94
2022-09-04T00:15:16.536Z,15.04
2022-09-04T00:18:02.074Z,15.08
2022-09-04T00:20:29.116Z,15.10
2022-09-04T00:23:03.300Z,15.18
2022-09-04T00:25:33.493Z,15.20
2022-09-04T00:28:13.559Z,15.19
2022-09-04T00:30:50.490Z,15.22
2022-09-04T00:33:40.313Z,15.23
2022-09-04T00:36:09.841Z,15.19
2022-09-04T00:38:55.642Z,15.23
2022-09-04T00:41:51.535Z,15.26
2022-09-04T00:44:21.024Z,15.33
2022-09-04T00:46:56.350Z,15.34
2022-09-04T00:49:30.842Z,15.35
2022-09-04T00:52:31.448Z,15.31
2022-09-04T00:55:25.276Z,15.30
2022-09-04T00:57:58.363Z,15.25
2022-09-04T01:00:30.359Z,15.23
2022-09-04T01:03:12.413Z,15.28
2022-09-04T01:06:00.992Z,15.29
2022-09-04T01:08:46.722Z,15.24
2022-09-04T01:11:33.348Z,15.27
2022-09-04T01:14:15.184Z,15.24
2022-09-04T01:16:45.077Z,15.24
2022-09-04T01:19:27.290Z,15.22
2022-09-04T01:22:12.677Z,15.22
2022-09-04T01:24:54.361Z,15.23
2022-09-04T01:27:42.296Z,15.20
2022-09-04T01:30:15.239Z,15.21
2022-09-04T01:32:59.589Z,15.14
2022-09-04T01:35:29.072Z,15.18
2022-09-04T01:38:02.310Z,15.19
2022-09-04T01:40:35.363Z,15.25
2022-09-04T01:43:03.034Z,15.35
2022-09-04T01:45:39.348Z,15.33
2022-09-04T01:48:17.105Z,15.40
2022-09-04T01:50:48.526Z,15.32
2022-09-04T01:53:22.045Z,15.30
2022-09-04T01:56:15.461Z,15.28
2022-09-04T01:58:45.280Z,15.37
2022-09-04T02:01:30.978Z,15.29
2022-09-04T02:04:06.495Z,15.27
2022-09-04T02:06:51.429Z,15.35
2022-09-04T02:09:32.659Z,15.27
2022-09-04T02:12:14.589Z,15.28
2022-09-04T02:15:12.967Z,15.22
2022-09-04T02:17:52.645Z,15.23
2022-09-04T02:20:27.186Z,15.33
2022-09-04T02:23:14.699Z,15.31
2022-09-04T02:26:00.834Z,15.28
2022-09-04T02:28:36.887Z,15.17
2022-09-04T02:31:21.660Z,15.22
2022-09-04T02:33:55.972Z,15.31
2022-09-04T02:36:41.556Z,15.20
2022-09-04T02:39:18.397Z,15.23
2022-09-04T02:41:53.365Z,15.21
2022-09-04T02:44:26.552Z,15.10
2022-09-04T02:47:09.113Z,15.06
2022-09-04T02:49:55.564Z,15.14
2022-09-04T02:52:22.453Z,15.06
2022-09-04T02:55:10.955Z,15.04
2022-09-04T02:57:56.744Z,15.06
2022-09-04T03:00:33.451Z,15.09
2022-09-04T03:03:22.076Z,14.99
2022-09-04T03:06:04.834Z,15.00
2022-09-04T03:08:43.405Z,15.07
2022-09-04T03:11:24.877Z,15.00
2022-09-04T03:14:15.933Z,14.91
2022-09-04T03:16:50.609Z,14.87
2022-09-04T03:19:25.464Z,14.89
2022-09-04T03:21:57.687Z,14.93
2022-09-04T03:24:38.346Z,14.89
2022-09-04T03:27:15.051Z,14.75
2022-09-04T03:29:54.064Z,14.84
2022-09-04T03:32:57.807Z,14.81
2022-09-04T03:35:42.367Z,14.78
2022-09-04T03:38:20.827Z,14.78
2022-09-04T03:41:11.545Z,14.77
2022-09-04T03:43:57.975Z,14.58
2022-09-04T03:46:32.866Z,14.62
2022-09-04T03:49:12.970Z,14.40
2022-09-04T03:51:55.243Z,14.45
2022-09-04T03:54:40.400Z,14.54
2022-09-04T03:57:12.920Z,14.58
2022-09-04T03:59:42.581Z,14.47
2022-09-04T04:02:14.534Z,14.38
2022-09-04T04:04:42.521Z,14.30
2022-09-04T04:07:41.609Z,14.41
2022-09-04T04:10:19.727Z,14.42
2022-09-04T04:13:16.115Z,14.27
2022-09-04T04:15:54.646Z,14.32
2022-09-04T04:18:39.840Z,14.24
2022-09-04T04:21:30.564Z,14.23
2022-09-04T04:24:08.917Z,14.28
2022-09-04T04:26:43.595Z,14.31
2022-09-04T04:29:28.050Z,14.25
2022-09-04T04:32:12.470Z,14.20
2022-09-04T04:35:01.010Z,14.25
2022-09-04T04:37:43.824Z,14.34
2022-09-04T04:40:36.792Z,14.36
2022-09-04T04:43:16.833Z,14.32
2022-09-04T04:45:55.012Z,14.40
2022-09-04T04:48:30.928Z,14.41
2022-09-04T04:51:17.071Z,14.56
2022-09-04T04:54:07.130Z,14.52
2022-09-04T04:56:59.105Z,14.53
2022-09-04T04:59:58.036Z,14.54
2022-09-04T05:02:31.754Z,14.65
2022-09-04T05:05:13.613Z,14.75
2022-09-04T05:07:50.917Z,14.74
2022-09-04T05:10:20.634Z,14.80
2022-09-04T05:12:56.368Z,14.76
2022-09-04T05:15:43.833Z,14.95
2022-09-04T05:18:34.280Z,14.76
2022-09-04T05:21:06.434Z,14.96
2022-09-04T05:26:48.644Z,15.04
2022-09-04T05:29:44.607Z,15.07
2022-09-04T05:32:20.001Z,15.14
2022-09-04T05:35:03.353Z,15.19
2022-09-04T05:38:00.436Z,15.09
2022-09-04T05:40:36.117Z,15.13
2022-09-04T05:43:15.592Z,15.32
2022-09-04T05:45:58.728Z,15.32
2022-09-04T05:48:44.084Z,15.44
2022-09-04T05:51:36.422Z,15.51
2022-09-04T05:54:09.339Z,15.64
2022-09-04T05:56:51.654Z,15.76
2022-09-04T05:59:33.094Z,15.80
2022-09-04T06:05:21.872Z,16.08
2022-09-04T06:07:52.854Z,16.23
2022-09-04T06:10:27.018Z,16.36
2022-09-04T06:13:20.180Z,16.23
2022-09-04T06:16:13.693Z,16.24
2022-09-04T06:18:49.898Z,16.18
2022-09-04T06:21:41.636Z,16.13
2022-09-04T06:24:27.241Z,16.24
2022-09-04T06:27:15.728Z,16.54
2022-09-04T06:29:42.600Z,16.64
2022-09-04T06:32:36.729Z,16.93
2022-09-04T06:35:16.892Z,17.07
2022-09-04T06:37:55.066Z,17.04
2022-09-04T06:40:33.807Z,16.98
2022-09-04T06:43:18.121Z,16.89
2022-09-04T06:46:16.257Z,16.72
2022-09-04T06:48:57.276Z,16.86
2022-09-04T06:51:45.115Z,16.96
2022-09-04T06:54:18.161Z,16.96
2022-09-04T06:56:56.079Z,17.07
2022-09-04T06:59:37.672Z,16.83
2022-09-04T07:02:26.174Z,16.97
2022-09-04T07:05:06.306Z,16.86
2022-09-04T07:07:41.822Z,16.90
2022-09-04T07:10:36.428Z,16.97
2022-09-04T07:13:13.094Z,17.04
2022-09-04T07:15:46.190Z,17.00
2022-09-04T07:18:40.402Z,17.02
2022-09-04T07:21:28.623Z,17.00
2022-09-04T07:24:05.273Z,17.06
2022-09-04T07:27:03.978Z,16.97
2022-09-04T07:29:30.919Z,17.04
2022-09-04T07:32:07.692Z,16.98
2022-09-04T07:35:02.827Z,16.73
2022-09-04T07:37:41.805Z,16.75
2022-09-04T07:40:34.580Z,16.72
2022-09-04T07:46:05.576Z,16.70
2022-09-04T07:48:46.168Z,16.85
2022-09-04T07:51:19.409Z,16.81
2022-09-04T07:54:22.352Z,16.73
2022-09-04T07:57:15.005Z,16.87
2022-09-04T08:00:06.851Z,16.84
2022-09-04T08:02:48.748Z,17.00
2022-09-04T08:05:32.015Z,17.08
2022-09-04T08:08:24.143Z,17.10
2022-09-04T08:11:03.313Z,17.21
2022-09-04T08:13:39.571Z,17.21
2022-09-04T08:16:26.044Z,17.37
2022-09-04T08:18:57.360Z,17.56
2022-09-04T08:21:34.975Z,17.63
2022-09-04T08:24:20.872Z,17.60
2022-09-04T08:27:14.061Z,17.59
2022-09-04T08:29:57.297Z,17.48
2022-09-04T08:32:43.083Z,17.54
2022-09-04T08:35:22.594Z,17.55
2022-09-04T08:38:12.358Z,17.63
2022-09-04T08:41:13.065Z,17.57
2022-09-04T08:44:02.247Z,17.60
2022-09-04T08:46:57.944Z,17.69
2022-09-04T08:49:46.492Z,17.75
2022-09-04T08:53:04.040Z,17.79
2022-09-04T08:55:59.248Z,17.75
2022-09-04T08:58:27.860Z,17.58
2022-09-04T09:01:16.416Z,17.64
2022-09-04T09:03:55.814Z,17.78
2022-09-04T09:06:41.893Z,18.12
2022-09-04T09:09:27.260Z,18.49
2022-09-04T09:12:23.404Z,18.80
2022-09-04T09:15:20.173Z,18.68
2022-09-04T09:18:16.775Z,18.61
2022-09-04T09:21:04.920Z,18.50
2022-09-04T09:23:56.260Z,18.59
2022-09-04T09:26:35.630Z,18.80
2022-09-04T09:29:24.182Z,18.78
2022-09-04T09:32:08.252Z,18.86
2022-09-04T09:35:00.427Z,18.58
2022-09-04T09:37:33.477Z,18.71
2022-09-04T09:40:08.172Z,18.66
2022-09-04T09:43:15.958Z,18.67
2022-09-04T09:46:21.410Z,18.77
2022-09-04T09:49:15.528Z,18.83
2022-09-04T09:51:55.715Z,18.99
2022-09-04T09:54:39.919Z,19.19
2022-09-04T09:57:33.245Z,19.37
2022-09-04T10:00:19.017Z,19.16
2022-09-04T10:03:08.003Z,19.03
2022-09-04T10:05:40.820Z,19.15
2022-09-04T10:08:18.148Z,19.36
2022-09-04T10:11:14.700Z,19.45
2022-09-04T10:13:47.508Z,19.80
2022-09-04T10:16:24.522Z,19.87
2022-09-04T10:19:16.645Z,19.62
2022-09-04T10:21:49.274Z,19.76
2022-09-04T10:24:48.066Z,19.60
2022-09-04T10:27:25.754Z,19.39
2022-09-04T10:30:14.026Z,19.43
2022-09-04T10:33:11.879Z,19.66
2022-09-04T10:36:01.583Z,19.48
2022-09-04T10:39:04.742Z,19.67
2022-09-04T10:41:48.607Z,19.91
2022-09-04T10:44:33.014Z,19.91
2022-09-04T10:47:11.630Z,20.00
2022-09-04T10:50:08.633Z,20.01
2022-09-04T10:53:10.489Z,20.16
2022-09-04T10:55:40.030Z,20.23
2022-09-04T10:58:22.340Z,20.19
2022-09-04T11:01:15.258Z,20.27
2022-09-04T11:03:58.075Z,20.30
2022-09-04T11:06:46.249Z,20.22
2022-09-04T11:09:22.269Z,20.13
2022-09-04T11:12:14.818Z,20.28
2022-09-04T11:15:07.298Z,20.46
2022-09-04T11:17:56.015Z,20.41
2022-09-04T11:20:26.533Z,20.47
2022-09-04T11:23:15.366Z,20.57
2022-09-04T11:25:45.435Z,20.53
2022-09-04T11:31:31.396Z,20.92
2022-09-04T11:34:10.561Z,21.00
2022-09-04T11:36:57.450Z,20.89
2022-09-04T11:39:27.471Z,20.93
2022-09-04T11:42:23.236Z,21.19
2022-09-04T11:45:14.725Z,20.99
2022-09-04T11:51:09.152Z,21.20
2022-09-04T11:54:06.377Z,21.31
2022-09-04T11:57:10.289Z,21.24
2022-09-04T11:59:47.538Z,21.23
2022-09-04T12:02:35.550Z,21.44
2022-09-04T12:05:13.632Z,21.49
2022-09-04T12:07:52.082Z,21.38
2022-09-04T12:11:04.763Z,21.45
2022-09-04T12:13:45.271Z,21.62
2022-09-04T12:16:44.716Z,21.72
2022-09-04T12:19:16.717Z,22.08
2022-09-04T12:22:06.944Z,21.75
2022-09-04T12:25:10.785Z,22.00
2022-09-04T12:27:45.738Z,22.30
2022-09-04T12:30:27.053Z,22.50
2022-09-04T12:33:17.248Z,22.37
2022-09-04T12:36:13.074Z,22.50
2022-09-04T12:38:56.043Z,22.80
2022-09-04T12:41:28.603Z,22.99
2022-09-04T12:44:16.820Z,22.80
2022-09-04T12:47:02.263Z,22.85
2022-09-04T12:49:32.322Z,22.73
2022-09-04T12:52:10.137Z,22.54
2022-09-04T12:54:44.057Z,22.53
2022-09-04T12:57:34.279Z,22.12
2022-09-04T13:00:18.329Z,22.19
2022-09-04T13:02:57.391Z,22.18
2022-09-04T13:05:29.948Z,22.16
2022-09-04T13:08:07.826Z,21.62
2022-09-04T13:10:58.362Z,21.59
2022-09-04T13:13:38.929Z,21.85
2022-09-04T13:16:32.546Z,21.84
2022-09-04T13:19:03.564Z,21.82
2022-09-04T13:22:00.004Z,21.75
2022-09-04T13:24:39.961Z,21.88
2022-09-04T13:27:30.741Z,21.73
2022-09-04T13:30:11.887Z,21.58
2022-09-04T13:32:55.069Z,21.63
2022-09-04T13:35:28.187Z,21.75
2022-09-04T13:38:01.244Z,21.49
2022-09-04T13:40:30.932Z,21.56
2022-09-04T13:43:08.629Z,21.57
2022-09-04T13:45:48.456Z,21.69
2022-09-04T13:48:37.485Z,21.71
2022-09-04T13:51:13.998Z,21.56
2022-09-04T13:53:54.413Z,21.75
2022-09-04T13:56:53.898Z,21.88
2022-09-04T13:59:23.031Z,22.01
2022-09-04T14:02:00.183Z,21.92
2022-09-04T14:04:31.443Z,22.15
2022-09-04T14:07:02.602Z,22.29
2022-09-04T14:09:39.829Z,22.35
2022-09-04T14:12:12.495Z,22.16
2022-09-04T14:15:00.274Z,22.22
2022-09-04T14:17:33.945Z,22.27
2022-09-04T14:20:12.066Z,22.16
2022-09-04T14:23:00.377Z,22.28
2022-09-04T14:25:53.427Z,22.20
2022-09-04T14:28:41.172Z,22.57
2022-09-04T14:31:23.339Z,23.41
2022-09-04T14:34:20.088Z,24.12
2022-09-04T14:37:15.538Z,24.67
2022-09-04T14:39:59.399Z,24.93
2022-09-04T14:42:51.438Z,25.03
2022-09-04T14:45:24.544Z,24.91
2022-09-04T14:48:17.269Z,24.81
2022-09-04T14:50:59.397Z,24.24
2022-09-04T14:53:35.412Z,24.00
2022-09-04T14:56:11.435Z,24.13
2022-09-04T14:58:50.865Z,23.99
2022-09-04T15:01:30.647Z,23.85
2022-09-04T15:04:23.391Z,23.56
2022-09-04T15:07:11.291Z,23.26
2022-09-04T15:09:41.526Z,23.15
2022-09-04T15:12:24.757Z,23.01
2022-09-04T15:15:15.611Z,23.05
2022-09-04T15:17:51.620Z,22.71
2022-09-04T15:20:28.467Z,22.49
2022-09-04T15:23:04.611Z,22.40
2022-09-04T15:25:59.514Z,22.20
2022-09-04T15:28:38.703Z,22.09
2022-09-04T15:31:18.686Z,22.11
2022-09-04T15:33:51.232Z,22.09
2022-09-04T15:36:22.038Z,22.26
2022-09-04T15:38:59.852Z,22.30
2022-09-04T15:41:38.616Z,22.26
2022-09-04T15:44:11.441Z,22.00
2022-09-04T15:46:50.401Z,21.95
2022-09-04T15:49:36.151Z,21.95
2022-09-04T15:52:19.684Z,21.86
2022-09-04T15:54:49.563Z,21.72
2022-09-04T15:57:29.529Z,21.75
2022-09-04T16:00:05.279Z,21.63
2022-09-04T16:02:54.708Z,21.53
2022-09-04T16:05:39.665Z,21.57
2022-09-04T16:08:23.061Z,21.50
2022-09-04T16:10:59.311Z,21.50
2022-09-04T16:13:34.023Z,21.28
2022-09-04T16:16:26.726Z,21.18
2022-09-04T16:19:15.518Z,21.16
2022-09-04T16:21:57.406Z,21.20
2022-09-04T16:24:45.739Z,21.22
2022-09-04T16:27:23.730Z,21.20
2022-09-04T16:29:55.541Z,21.13
2022-09-04T16:32:27.275Z,21.02
2022-09-04T16:35:00.228Z,20.80
2022-09-04T16:37:41.259Z,20.64
2022-09-04T16:40:20.298Z,20.49
2022-09-04T16:42:58.478Z,20.35
2022-09-04T16:45:39.655Z,20.18
2022-09-04T16:48:23.363Z,20.05
2022-09-04T16:51:39.831Z,19.94
2022-09-04T16:54:28.886Z,19.77
2022-09-04T16:57:13.010Z,19.60
2022-09-04T16:59:58.804Z,19.45
2022-09-04T17:02:50.967Z,19.35
2022-09-04T17:05:37.363Z,19.19
2022-09-04T17:08:28.401Z,19.02
2022-09-04T17:10:58.129Z,18.87
2022-09-04T17:13:44.084Z,18.81
2022-09-04T17:16:26.782Z,18.71
2022-09-04T17:18:55.589Z,18.56
2022-09-04T17:25:51.208Z,18.44
2022-09-04T17:29:10.498Z,18.12
2022-09-04T17:29:14.170Z,18.24
2022-09-04T17:30:46.099Z,17.92
2022-09-04T17:37:06.071Z,17.79
2022-09-04T17:40:50.559Z,17.52
2022-09-04T17:40:53.467Z,17.65
2022-09-04T17:42:26.500Z,17.26
2022-09-04T17:45:10.328Z,17.21
2022-09-04T17:47:44.032Z,17.09
2022-09-04T17:50:22.747Z,17.05
2022-09-04T17:52:57.993Z,16.97
2022-09-04T17:55:25.857Z,16.91
2022-09-04T17:58:01.901Z,16.84
2022-09-04T18:00:38.486Z,16.73
2022-09-04T18:03:26.906Z,16.65
2022-09-04T18:06:03.782Z,16.61
2022-09-04T18:08:55.869Z,16.55
2022-09-04T18:11:29.467Z,16.50
2022-09-04T18:14:09.345Z,16.40
2022-09-04T18:16:45.535Z,16.28
2022-09-04T18:19:23.881Z,16.21
2022-09-04T18:22:26.557Z,16.17
2022-09-04T18:25:16.382Z,16.06
2022-09-04T18:28:06.240Z,15.98
2022-09-04T18:35:19.544Z,15.86
2022-09-04T18:37:20.786Z,15.78
2022-09-04T18:37:45.825Z,15.73
2022-09-04T18:40:26.634Z,15.72
2022-09-04T18:50:39.645Z,15.57
2022-09-04T18:50:43.674Z,15.60
2022-09-04T18:50:45.856Z,15.50
2022-09-04T18:52:45.015Z,15.44
2022-09-04T18:55:39.955Z,15.41
2022-09-04T18:58:12.763Z,15.31
2022-09-04T19:00:43.899Z,15.28
2022-09-04T19:03:23.403Z,15.26
2022-09-04T19:05:55.722Z,15.24
2022-09-04T19:08:30.101Z,15.19
2022-09-04T19:11:20.812Z,15.15
2022-09-04T19:13:48.203Z,15.08
2022-09-04T19:16:49.611Z,15.02
2022-09-04T19:19:34.545Z,15.01
2022-09-04T19:22:14.279Z,14.93
2022-09-04T19:24:59.795Z,14.87
2022-09-04T19:27:44.911Z,14.86
2022-09-04T19:30:23.797Z,14.83
2022-09-04T19:33:04.044Z,14.84
2022-09-04T19:35:49.728Z,14.79
2022-09-04T19:45:57.651Z,14.77
2022-09-04T19:46:05.542Z,14.74
2022-09-04T19:46:15.954Z,14.70
2022-09-04T19:47:59.686Z,14.65
2022-09-04T19:53:18.304Z,14.63
2022-09-04T19:53:49.285Z,14.52
2022-09-04T19:56:30.415Z,14.50
2022-09-04T19:59:19.103Z,14.48
2022-09-04T20:02:12.004Z,14.44
2022-09-04T20:04:47.111Z,14.36
2022-09-04T20:07:37.216Z,14.33
2022-09-04T20:10:23.610Z,14.30
2022-09-04T20:13:08.218Z,14.32
2022-09-04T20:15:55.342Z,14.31
2022-09-04T20:18:47.683Z,14.25
2022-09-04T20:21:31.470Z,14.21
2022-09-04T20:24:04.677Z,14.18
2022-09-04T20:26:54.790Z,14.15
2022-09-04T20:29:32.707Z,14.13
2022-09-04T20:32:14.501Z,14.12
2022-09-04T20:34:54.452Z,14.05
2022-09-04T20:37:43.590Z,14.00
2022-09-04T20:40:27.154Z,13.98
2022-09-04T20:43:03.665Z,13.94
2022-09-04T20:49:16.674Z,13.91
2022-09-04T20:52:52.041Z,13.88
2022-09-04T20:52:59.185Z,13.88
2022-09-04T20:54:51.956Z,13.88
2022-09-04T21:02:50.679Z,13.87
2022-09-04T21:03:07.825Z,13.79
2022-09-04T21:03:39.504Z,13.80
2022-09-04T21:06:25.586Z,13.72
2022-09-04T21:09:05.679Z,13.75
2022-09-04T21:11:41.634Z,13.72
2022-09-04T21:14:44.704Z,13.71
2022-09-04T21:17:41.313Z,13.70
2022-09-04T21:20:14.370Z,13.69
2022-09-04T21:23:08.301Z,13.70
2022-09-04T21:26:02.236Z,13.57
2022-09-04T21:28:46.704Z,13.52
2022-09-04T21:31:31.925Z,13.46
2022-09-04T21:34:20.862Z,13.39
2022-09-04T21:37:11.656Z,13.39
2022-09-04T21:39:44.496Z,13.45
2022-09-04T21:42:35.128Z,13.38
2022-09-04T21:45:18.779Z,13.30
2022-09-04T21:47:55.093Z,13.22
2022-09-04T21:50:34.383Z,13.21
2022-09-04T21:53:16.410Z,13.20
2022-09-04T22:02:11.054Z,13.19
2022-09-04T22:02:40.981Z,13.16
2022-09-04T22:02:41.529Z,13.10
2022-09-04T22:05:28.182Z,13.07
2022-09-04T22:13:29.152Z,13.01
2022-09-04T22:13:37.243Z,13.02
2022-09-04T22:14:16.333Z,12.98
2022-09-04T22:16:49.010Z,12.98
2022-09-04T22:19:40.167Z,12.93
2022-09-04T22:22:22.117Z,12.95
2022-09-04T22:24:55.018Z,12.92
2022-09-04T22:28:07.897Z,12.92
2022-09-04T22:30:44.313Z,12.95
2022-09-04T22:33:45.599Z,12.84
2022-09-04T22:36:40.829Z,12.81
2022-09-04T22:39:42.461Z,12.81
2022-09-04T22:45:30.620Z,12.70
2022-09-04T22:48:19.163Z,12.75
2022-09-04T22:51:04.438Z,12.74
2022-09-04T22:53:54.989Z,12.70
2022-09-04T22:56:45.125Z,12.66
2022-09-04T22:59:26.828Z,12.66
2022-09-04T23:02:16.952Z,12.57
2022-09-04T23:05:02.160Z,12.56
2022-09-04T23:13:43.686Z,12.47
2022-09-04T23:13:58.564Z,12.43
2022-09-04T23:14:26.265Z,12.41
2022-09-04T23:17:11.514Z,12.42
2022-09-04T23:26:36.127Z,12.37
2022-09-04T23:26:43.771Z,12.38
2022-09-04T23:26:44.991Z,12.42
2022-09-04T23:29:09.572Z,12.39
2022-09-04T23:32:04.769Z,12.38
2022-09-04T23:35:14.287Z,12.33
2022-09-04T23:38:11.592Z,12.34
2022-09-04T23:40:47.717Z,12.33
2022-09-04T23:43:29.523Z,12.30
2022-09-04T23:46:08.900Z,12.31
2022-09-04T23:48:47.494Z,12.33
2022-09-04T23:51:20.978Z,12.27
2022-09-04T23:53:59.214Z,12.22
2022-09-04T23:57:01.124Z,12.18
2022-09-04T23:59:48.974Z,12.16
